Time;durP1;ratioP1;P1;durP2;ratioP2;P2;SDS_P1;SDS_P2;PMS_P1;PMS_P2;Temp;Humidity;BMP_temperature;BMP_pressure;BME280_temperature;BME280_humidity;BME280_pressure;Samples;Min_cycle;Max_cycle;Signal;HPM_P1;HPM_P2
2023/07/10 00:01:46;;;;;;;9.32;4.18;;;;;;;27.89;46.89;100700.97;4140805;28;20048;-66
2023/07/10 00:03:49;;;;;;;6.90;4.35;;;;;;;27.83;46.86;100689.69;4134746;28;20141;-66
2023/07/10 00:05:52;;;;;;;9.35;4.45;;;;;;;27.80;47.01;100695.19;4140763;28;20128;-66
2023/07/10 00:07:56;;;;;;;8.40;4.43;;;;;;;27.82;46.90;100690.63;4140579;28;20042;-66
2023/07/10 00:09:59;;;;;;;;;;;;;;;27.69;47.08;100692.22;4130700;28;20069;-66
2023/07/10 00:12:02;;;;;;;8.55;3.72;;;;;;;27.70;47.42;100680.63;4138580;28;20331;-66
2023/07/10 00:14:06;;;;;;;9.30;4.18;;;;;;;27.74;47.58;100682.16;4138979;28;20049;-66
2023/07/10 00:16:14;;;;;;;8.30;4.43;;;;;;;27.73;47.98;100680.44;4135961;28;20040;-66
2023/07/10 00:18:19;;;;;;;10.52;4.43;;;;;;;27.66;48.20;100677.22;4138850;28;20099;-66
2023/07/10 00:20:24;;;;;;;8.68;4.03;;;;;;;27.60;48.33;100663.31;4133824;28;20070;-66
2023/07/10 00:22:27;;;;;;;8.13;4.70;;;;;;;27.57;48.32;100675.06;4135220;28;20407;-66
2023/07/10 00:24:31;;;;;;;10.45;4.32;;;;;;;27.53;48.34;100668.16;4132614;28;20459;-66
2023/07/10 00:26:37;;;;;;;7.07;4.00;;;;;;;27.48;48.12;100673.75;4139465;28;20042;-66
2023/07/10 00:28:40;;;;;;;8.82;4.32;;;;;;;27.47;48.67;100677.34;4136482;28;20042;-66
2023/07/10 00:30:45;;;;;;;10.70;4.18;;;;;;;27.47;48.55;100682.69;4132618;28;20134;-66
2023/07/10 00:32:52;;;;;;;7.15;3.88;;;;;;;27.45;49.03;100676.59;4141636;28;20041;-66
2023/07/10 00:34:55;;;;;;;12.25;4.82;;;;;;;27.41;48.90;100680.34;4128382;28;20074;-66
2023/07/10 00:36:58;;;;;;;13.23;5.53;;;;;;;27.33;49.06;100674.50;4128646;28;20065;-66
2023/07/10 00:39:13;;;;;;;8.07;5.03;;;;;;;27.29;49.39;100681.84;4143823;28;20334;-66
2023/07/10 00:41:18;;;;;;;8.63;4.63;;;;;;;27.18;49.57;100677.03;4133454;28;20141;-65
2023/07/10 00:43:28;;;;;;;7.63;4.15;;;;;;;27.14;50.13;100683.47;4127199;28;20136;-66
2023/07/10 00:45:31;;;;;;;7.53;4.45;;;;;;;27.10;50.08;100681.94;4132049;28;20516;-66
2023/07/10 00:47:37;;;;;;;10.57;4.40;;;;;;;27.07;49.90;100695.44;4140577;28;20544;-66
2023/07/10 00:49:44;;;;;;;7.80;4.45;;;;;;;27.06;50.30;100696.38;4145081;28;20046;-65
2023/07/10 00:51:56;;;;;;;14.93;4.60;;;;;;;27.07;50.02;100692.75;4128698;28;20097;-66
2023/07/10 00:54:00;;;;;;;7.68;4.28;;;;;;;27.06;50.13;100691.03;4139644;28;20045;-66
2023/07/10 00:56:04;;;;;;;9.73;4.20;;;;;;;27.03;50.79;100696.53;4120020;28;20405;-66
2023/07/10 00:58:22;;;;;;;8.00;4.57;;;;;;;27.00;50.74;100692.19;4140573;28;20046;-66
2023/07/10 01:00:33;;;;;;;;;;;;;;;26.89;50.73;100707.03;4144725;28;20089;-66
2023/07/10 01:02:36;;;;;;;8.25;4.45;;;;;;;26.90;50.58;100714.94;4127900;28;19921;-65
2023/07/10 01:04:42;;;;;;;11.13;4.65;;;;;;;26.95;50.46;100720.06;4142970;28;20044;-66
2023/07/10 01:06:45;;;;;;;8.68;4.50;;;;;;;26.98;50.40;100720.78;4144278;28;20037;-65
2023/07/10 01:08:52;;;;;;;9.10;4.60;;;;;;;26.97;50.58;100720.81;4130286;28;20406;-65
2023/07/10 01:10:54;;;;;;;8.32;4.13;;;;;;;26.94;51.22;100726.31;4141389;28;20049;-65
2023/07/10 01:12:57;;;;;;;8.98;4.22;;;;;;;26.88;51.31;100730.16;4136654;28;20038;-66
2023/07/10 01:15:03;;;;;;;7.32;4.35;;;;;;;26.87;51.63;100740.91;4141651;28;20029;-66
2023/07/10 01:17:08;;;;;;;10.40;4.93;;;;;;;26.81;51.47;100750.09;4141624;28;20057;-66
2023/07/10 01:19:19;;;;;;;10.10;4.85;;;;;;;26.80;51.64;100751.03;4136070;28;20037;-66
2023/07/10 01:21:30;;;;;;;8.48;4.75;;;;;;;26.78;51.30;100761.78;4139653;28;20121;-66
2023/07/10 01:23:32;;;;;;;6.97;4.03;;;;;;;26.77;51.01;100769.84;4139274;28;20038;-66
2023/07/10 01:25:39;;;;;;;9.00;4.60;;;;;;;26.78;51.02;100767.13;4137002;28;20072;-66
2023/07/10 01:27:42;;;;;;;9.98;4.43;;;;;;;26.80;50.89;100775.91;4139801;28;20034;-66
2023/07/10 01:29:51;;;;;;;9.48;4.50;;;;;;;26.78;51.44;100772.44;4136910;28;20038;-66
2023/07/10 01:31:56;;;;;;;8.68;4.95;;;;;;;26.75;51.35;100771.72;4138635;28;20037;-66
2023/07/10 01:34:03;;;;;;;8.38;4.28;;;;;;;26.67;51.59;100772.06;4140603;28;20546;-66
2023/07/10 01:36:08;;;;;;;9.25;4.55;;;;;;;26.62;51.84;100769.63;4136852;28;20034;-66
2023/07/10 01:38:15;;;;;;;6.28;4.10;;;;;;;26.58;51.78;100767.19;4138874;28;20473;-66
2023/07/10 01:40:28;;;;;;;8.90;4.22;;;;;;;26.59;51.74;100767.09;4134756;28;20457;-66
2023/07/10 01:42:31;;;;;;;6.78;3.97;;;;;;;26.60;51.51;100762.63;4137320;28;21457;-66
2023/07/10 01:44:36;;;;;;;6.75;4.15;;;;;;;26.61;52.00;100770.56;4136503;28;20042;-66
2023/07/10 01:46:38;;;;;;;7.55;4.95;;;;;;;26.59;51.63;100774.22;4140813;28;20049;-66
2023/07/10 01:48:41;;;;;;;;;;;;;;;26.45;52.34;100773.09;4132954;28;20058;-66
2023/07/10 01:50:44;;;;;;;8.52;4.95;;;;;;;26.39;52.14;100777.84;4123327;28;19922;-66
2023/07/10 01:52:47;;;;;;;7.53;4.20;;;;;;;26.35;52.26;100774.44;4140328;28;20113;-66
2023/07/10 01:54:52;;;;;;;9.85;4.57;;;;;;;26.35;52.35;100774.44;4140945;28;20043;-66
2023/07/10 01:56:59;;;;;;;6.68;4.13;;;;;;;26.32;52.51;100774.59;4138363;28;20559;-66
2023/07/10 01:59:02;;;;;;;10.45;4.40;;;;;;;26.32;52.45;100765.75;4142945;28;20061;-66
2023/07/10 02:01:05;;;;;;;9.85;4.60;;;;;;;26.32;52.48;100760.41;4142612;28;20134;-66
2023/07/10 02:03:08;;;;;;;10.85;4.38;;;;;;;26.18;52.97;100751.28;4137258;28;20073;-66
2023/07/10 02:05:11;;;;;;;7.83;4.40;;;;;;;26.20;52.96;100751.19;4142142;28;20060;-66
2023/07/10 02:07:14;;;;;;;7.65;4.68;;;;;;;26.21;52.93;100747.56;4116470;28;20316;-66
2023/07/10 02:09:17;;;;;;;6.90;3.58;;;;;;;26.22;52.81;100741.31;4120647;28;20125;-66
2023/07/10 02:11:21;;;;;;;6.18;3.75;;;;;;;26.17;53.07;100738.00;4149705;28;20033;-66
2023/07/10 02:13:24;;;;;;;;;;;;;;;26.13;53.06;100738.13;4140408;28;20046;-66
2023/07/10 02:15:27;;;;;;;11.10;4.38;;;;;;;26.16;53.27;100739.81;4145423;28;19937;-66
2023/07/10 02:17:30;;;;;;;7.97;4.43;;;;;;;26.21;52.95;100740.47;4141143;28;20046;-66
2023/07/10 02:19:33;;;;;;;9.95;4.75;;;;;;;26.20;53.21;100730.72;4172557;22;20204;-63
2023/07/10 02:21:38;;;;;;;10.40;4.10;;;;;;;26.17;53.41;100732.66;4164959;28;20041;-63
2023/07/10 02:23:41;;;;;;;10.27;4.47;;;;;;;26.13;53.49;100727.47;4164547;28;20057;-63
2023/07/10 02:25:44;;;;;;;9.93;4.60;;;;;;;26.13;53.79;100735.47;4162869;28;20033;-63
2023/07/10 02:27:49;;;;;;;8.88;4.20;;;;;;;26.10;53.52;100738.28;4162998;28;20044;-63
2023/07/10 02:29:52;;;;;;;9.05;4.40;;;;;;;26.18;53.39;100739.72;4161892;28;20418;-63
2023/07/10 02:31:55;;;;;;;11.02;4.30;;;;;;;26.13;53.41;100732.81;4163168;28;20491;-63
2023/07/10 02:33:58;;;;;;;7.60;3.80;;;;;;;26.15;53.53;100745.19;4178918;28;20041;-63
2023/07/10 02:36:02;;;;;;;7.95;4.80;;;;;;;26.14;53.50;100736.34;4154622;28;20034;-63
2023/07/10 02:38:05;;;;;;;7.75;4.10;;;;;;;26.09;53.41;100731.25;4160282;28;20037;-63
2023/07/10 02:40:09;;;;;;;13.82;5.07;;;;;;;25.99;53.53;100732.53;4162017;28;20103;-63
2023/07/10 02:42:11;;;;;;;9.73;4.05;;;;;;;25.98;53.30;100730.84;4164202;28;20144;-63
2023/07/10 02:44:15;;;;;;;7.55;4.22;;;;;;;25.95;53.63;100733.66;4157361;28;20131;-63
2023/07/10 02:46:19;;;;;;;8.65;4.28;;;;;;;25.91;53.71;100753.38;4162394;28;20033;-63
2023/07/10 02:48:24;;;;;;;8.93;4.60;;;;;;;25.98;53.39;100769.91;4162258;28;20033;-63
2023/07/10 02:50:27;;;;;;;6.60;4.17;;;;;;;26.03;53.39;100795.44;4163443;28;20060;-63
2023/07/10 02:52:30;;;;;;;6.50;4.30;;;;;;;26.09;53.25;100819.19;4163931;28;20556;-63
2023/07/10 02:54:33;;;;;;;8.40;4.13;;;;;;;26.12;53.12;100824.38;4161997;28;20037;-63
2023/07/10 02:56:36;;;;;;;8.63;4.15;;;;;;;26.11;53.43;100835.94;4162272;28;20450;-63
2023/07/10 02:58:39;;;;;;;13.88;5.07;;;;;;;26.11;53.90;100811.13;4162843;28;20041;-64
2023/07/10 03:00:42;;;;;;;11.43;5.70;;;;;;;26.12;55.67;100771.06;4162383;28;20037;-63
2023/07/10 03:02:45;;;;;;;12.10;4.90;;;;;;;26.03;55.96;100768.81;4163109;28;20603;-63
2023/07/10 03:04:48;;;;;;;10.13;5.03;;;;;;;25.88;56.93;100780.13;4162032;28;20049;-63
2023/07/10 03:06:51;;;;;;;8.48;4.82;;;;;;;25.82;57.25;100785.72;4144850;28;20126;-63
2023/07/10 03:08:54;;;;;;;14.05;5.72;;;;;;;25.75;59.02;100791.31;4160603;28;20125;-63
2023/07/10 03:11:01;;;;;;;12.13;5.65;;;;;;;25.64;60.17;100798.91;4159193;28;20041;-63
2023/07/10 03:13:05;;;;;;;7.57;4.35;;;;;;;25.46;60.47;100794.41;4161691;28;20033;-63
2023/07/10 03:15:08;;;;;;;8.45;5.20;;;;;;;25.42;60.15;100799.84;4161301;28;20049;-63
2023/07/10 03:17:12;;;;;;;12.68;5.75;;;;;;;25.32;60.15;100811.81;4156470;28;20559;-63
2023/07/10 03:19:15;;;;;;;;;;;;;;;25.15;60.82;100814.28;4161833;28;20388;-63
2023/07/10 03:21:18;;;;;;;8.90;4.50;;;;;;;25.13;61.23;100814.34;4159592;28;19927;-63
2023/07/10 03:23:20;;;;;;;12.43;5.72;;;;;;;25.20;61.90;100815.81;4162056;28;20112;-63
2023/07/10 03:25:23;;;;;;;8.48;4.95;;;;;;;25.14;61.88;100815.19;4159792;28;20103;-63
2023/07/10 03:27:27;;;;;;;10.65;5.30;;;;;;;25.05;61.87;100817.28;4161582;28;20043;-63
2023/07/10 03:29:30;;;;;;;9.80;5.40;;;;;;;25.04;61.86;100812.91;4163010;28;20065;-63
2023/07/10 03:31:32;;;;;;;8.07;4.97;;;;;;;25.04;62.28;100804.06;4161372;28;20044;-63
2023/07/10 03:33:36;;;;;;;9.80;4.78;;;;;;;24.99;61.76;100801.59;4159344;28;20041;-63
2023/07/10 03:35:39;;;;;;;8.82;5.40;;;;;;;24.97;61.08;100808.78;4162351;28;20045;-63
2023/07/10 03:37:42;;;;;;;9.15;4.93;;;;;;;24.93;61.63;100796.53;4162759;28;20463;-62
2023/07/10 03:39:45;;;;;;;7.57;4.40;;;;;;;24.91;61.62;100806.34;4162826;28;20115;-63
2023/07/10 03:41:48;;;;;;;9.18;5.07;;;;;;;24.90;61.93;100809.94;4162060;28;20044;-63
2023/07/10 03:43:51;;;;;;;6.95;4.65;;;;;;;24.86;62.42;100806.53;4157158;28;20044;-63
2023/07/10 03:45:55;;;;;;;10.05;4.90;;;;;;;24.92;62.47;100816.91;4162714;28;20570;-63
2023/07/10 03:47:58;;;;;;;6.80;5.10;;;;;;;24.98;62.30;100813.16;4161519;28;20052;-63
2023/07/10 03:50:03;;;;;;;9.75;5.22;;;;;;;25.05;62.43;100806.66;4154239;28;20037;-62
2023/07/10 03:52:06;;;;;;;6.78;4.25;;;;;;;25.07;62.45;100825.22;4161716;28;20033;-63
2023/07/10 03:54:09;;;;;;;8.20;5.40;;;;;;;25.08;62.43;100835.78;4159923;28;20064;-63
2023/07/10 03:56:11;;;;;;;10.35;5.32;;;;;;;25.08;62.57;100838.44;4162076;28;20040;-62
2023/07/10 03:58:19;;;;;;;10.70;5.50;;;;;;;25.09;62.74;100850.84;4162159;28;20034;-63
2023/07/10 04:00:22;;;;;;;8.75;5.53;;;;;;;25.05;62.90;100845.69;4158542;28;20072;-63
2023/07/10 04:02:25;;;;;;;12.32;4.95;;;;;;;25.07;62.82;100849.16;4161218;28;20392;-62
2023/07/10 04:04:27;;;;;;;14.57;5.25;;;;;;;25.11;62.37;100847.25;4156266;28;20067;-61
2023/07/10 04:06:32;;;;;;;9.88;5.28;;;;;;;25.17;62.38;100857.63;4160490;28;20048;-61
2023/07/10 04:08:38;;;;;;;11.50;5.28;;;;;;;25.13;62.47;100856.91;4159870;28;20045;-61
2023/07/10 04:10:41;;;;;;;10.65;5.30;;;;;;;25.17;62.62;100858.50;4161958;28;20450;-61
2023/07/10 04:12:44;;;;;;;9.30;4.78;;;;;;;25.16;62.75;100863.88;4161886;28;20033;-61
2023/07/10 04:14:47;;;;;;;9.98;4.93;;;;;;;25.13;62.86;100867.56;4158412;28;20514;-61
2023/07/10 04:16:52;;;;;;;10.15;5.18;;;;;;;25.11;63.01;100866.72;4161280;28;20125;-61
2023/07/10 04:18:56;;;;;;;10.98;4.97;;;;;;;25.12;62.94;100867.63;4161931;28;20030;-61
2023/07/10 04:21:04;;;;;;;7.90;4.97;;;;;;;25.10;63.21;100875.63;4160177;28;20044;-66
2023/07/10 04:23:08;;;;;;;10.15;5.82;;;;;;;24.91;64.34;100888.78;4161337;28;20037;-65
2023/07/10 04:25:11;;;;;;;;;;;;;;;24.67;65.10;100891.47;4161776;28;20040;-65
2023/07/10 04:27:14;;;;;;;10.02;5.57;;;;;;;24.59;65.17;100893.56;4160659;28;20012;-65
2023/07/10 04:29:18;;;;;;;11.55;6.25;;;;;;;24.56;65.40;100898.94;4176955;28;20045;-65
2023/07/10 04:31:23;;;;;;;9.52;5.82;;;;;;;24.48;65.61;100903.69;4161946;28;20087;-65
2023/07/10 04:33:26;;;;;;;12.00;6.60;;;;;;;24.44;66.02;100907.38;4162078;28;20384;-66
2023/07/10 04:35:28;;;;;;;11.80;6.65;;;;;;;24.41;66.55;100903.03;4161424;28;20040;-65
2023/07/10 04:37:32;;;;;;;11.60;6.07;;;;;;;24.44;66.83;100899.41;4160518;28;20487;-66
2023/07/10 04:39:36;;;;;;;8.95;5.90;;;;;;;24.46;67.00;100893.13;4161946;28;20041;-65
2023/07/10 04:41:39;;;;;;;;;;;;;;;24.33;67.80;100892.69;4162415;28;20553;-66
2023/07/10 04:43:42;;;;;;;8.75;5.38;;;;;;;24.39;67.21;100891.59;4158911;28;20474;-66
2023/07/10 04:45:45;;;;;;;10.43;5.45;;;;;;;24.38;67.82;100898.69;4161724;28;20041;-66
2023/07/10 04:47:48;;;;;;;9.25;5.53;;;;;;;24.33;68.05;100895.34;4160536;28;20036;-65
2023/07/10 04:49:53;;;;;;;10.40;6.00;;;;;;;24.34;67.98;100898.88;4161501;28;20525;-65
2023/07/10 04:51:55;;;;;;;9.40;5.55;;;;;;;24.33;68.34;100903.31;4159433;28;20526;-65
2023/07/10 04:53:58;;;;;;;10.73;5.85;;;;;;;24.33;68.14;100913.09;4161576;28;20091;-65
2023/07/10 04:56:04;;;;;;;12.80;6.03;;;;;;;24.33;68.01;100908.63;4161553;28;20029;-66
2023/07/10 04:58:08;;;;;;;8.35;5.53;;;;;;;24.29;68.52;100911.47;4161506;28;20117;-66
2023/07/10 05:00:12;;;;;;;9.57;5.45;;;;;;;24.31;68.58;100917.59;4161749;28;20106;-65
2023/07/10 05:02:14;;;;;;;9.50;5.38;;;;;;;24.26;68.56;100912.44;4161733;28;20395;-66
2023/07/10 05:04:17;;;;;;;12.38;6.18;;;;;;;24.25;68.75;100909.84;4160990;28;20045;-65
2023/07/10 05:06:21;;;;;;;10.13;5.80;;;;;;;24.29;68.77;100907.00;4160055;28;20570;-65
2023/07/10 05:08:24;;;;;;;11.27;5.05;;;;;;;24.35;68.88;100901.47;4151639;28;20037;-66
2023/07/10 05:10:28;;;;;;;8.50;4.88;;;;;;;24.40;69.02;100899.53;4157543;28;20117;-65
2023/07/10 05:12:32;;;;;;;10.88;5.60;;;;;;;24.47;68.88;100893.97;4161653;28;20041;-65
2023/07/10 05:14:35;;;;;;;13.30;6.85;;;;;;;24.50;68.60;100897.41;4160952;28;20043;-65
2023/07/10 05:16:38;;;;;;;12.90;5.65;;;;;;;24.52;68.42;100906.19;4161478;28;20038;-65
2023/07/10 05:18:41;;;;;;;9.47;6.10;;;;;;;24.54;68.22;100912.28;4160815;28;20029;-65
2023/07/10 05:20:46;;;;;;;11.27;6.00;;;;;;;24.55;68.39;100908.72;4156202;28;20166;-65
2023/07/10 05:22:49;;;;;;;9.13;5.28;;;;;;;24.54;68.07;100914.09;4160732;28;20038;-65
2023/07/10 05:24:52;;;;;;;10.85;5.65;;;;;;;24.59;67.80;100922.81;4159245;28;20060;-65
2023/07/10 05:26:55;;;;;;;10.93;6.05;;;;;;;24.67;64.97;100923.38;4160829;28;20040;-65
2023/07/10 05:28:59;;;;;;;10.82;5.68;;;;;;;24.72;63.33;100920.53;4162074;28;20491;-65
2023/07/10 05:31:03;;;;;;;;;;;;;;;24.58;63.96;100924.53;4164107;28;20034;-65
2023/07/10 05:33:05;;;;;;;12.93;5.20;;;;;;;24.62;63.96;100928.00;4164074;28;20370;-65
2023/07/10 05:35:11;;;;;;;11.73;5.95;;;;;;;24.73;63.24;100939.09;4164234;28;20559;-65
2023/07/10 05:37:14;;;;;;;8.73;5.13;;;;;;;24.82;63.31;100937.03;4164271;28;20545;-65
2023/07/10 05:39:16;;;;;;;10.98;5.85;;;;;;;24.89;62.66;100936.72;4163390;28;20036;-65
2023/07/10 05:41:20;;;;;;;7.72;4.60;;;;;;;24.97;62.29;100925.81;4162145;28;20042;-65
2023/07/10 05:43:23;;;;;;;9.25;4.95;;;;;;;24.99;62.10;100928.41;4163422;28;20048;-65
2023/07/10 05:45:28;;;;;;;9.98;5.60;;;;;;;25.07;61.63;100931.63;4164625;28;20509;-65
2023/07/10 05:47:30;;;;;;;8.48;5.20;;;;;;;25.09;61.49;100929.78;4164765;28;20385;-65
2023/07/10 05:49:33;;;;;;;13.45;5.88;;;;;;;25.23;60.84;100926.56;4164597;28;20452;-65
2023/07/10 05:51:36;;;;;;;9.57;6.18;;;;;;;25.17;59.82;100927.69;4154468;28;20490;-65
2023/07/10 05:53:39;;;;;;;11.63;5.50;;;;;;;25.09;60.06;100919.16;4176534;28;20407;-65
2023/07/10 05:55:46;;;;;;;8.30;5.65;;;;;;;25.09;60.91;100925.31;4163921;28;20039;-65
2023/07/10 05:57:49;;;;;;;7.82;4.43;;;;;;;25.09;62.09;100935.09;4164545;28;20083;-65
2023/07/10 05:59:51;;;;;;;8.18;5.20;;;;;;;25.17;62.79;100935.66;4164121;28;20128;-65
2023/07/10 06:01:57;;;;;;;10.55;5.63;;;;;;;25.29;62.80;100947.63;4160275;28;20041;-65
2023/07/10 06:03:59;;;;;;;15.68;8.38;;;;;;;25.40;60.95;100950.75;4163605;28;20052;-65
2023/07/10 06:06:05;;;;;;;14.45;6.47;;;;;;;25.46;60.04;100960.28;4163966;28;20125;-65
2023/07/10 06:08:10;;;;;;;15.02;6.53;;;;;;;25.49;60.67;100961.97;4163630;28;20038;-65
2023/07/10 06:10:13;;;;;;;9.32;5.72;;;;;;;25.59;61.44;100971.31;4163871;28;20030;-65
2023/07/10 06:12:15;;;;;;;10.07;6.13;;;;;;;25.68;60.92;100978.06;4164669;28;20049;-65
2023/07/10 06:14:18;;;;;;;9.75;5.47;;;;;;;25.72;61.10;100971.69;4162414;28;20376;-65
2023/07/10 06:16:21;;;;;;;14.40;8.05;;;;;;;25.86;60.07;100979.09;4164528;28;20133;-65
2023/07/10 06:18:29;;;;;;;13.13;8.05;;;;;;;25.94;58.50;100975.19;4164605;28;20037;-65
2023/07/10 06:20:32;;;;;;;;;;;;;;;25.85;58.90;100977.38;4161122;28;20043;-65
2023/07/10 06:22:35;;;;;;;14.75;8.55;;;;;;;25.85;58.70;100982.72;4164190;28;19975;-65
2023/07/10 06:24:38;;;;;;;11.45;7.70;;;;;;;25.84;58.70;100980.97;4163238;28;20136;-65
2023/07/10 06:26:41;;;;;;;10.30;5.45;;;;;;;25.82;59.28;100988.13;4164166;28;20481;-65
2023/07/10 06:28:44;;;;;;;15.70;7.65;;;;;;;25.92;59.19;100986.84;4163880;28;20038;-65
2023/07/10 06:30:55;;;;;;;14.63;7.72;;;;;;;25.91;58.57;100983.31;4164009;28;20116;-65
2023/07/10 06:32:58;;;;;;;9.18;6.50;;;;;;;25.86;58.75;100981.75;4163927;28;20422;-65
2023/07/10 06:35:02;;;;;;;12.90;7.45;;;;;;;25.88;58.13;100983.44;4162953;28;20451;-65
2023/07/10 06:37:05;;;;;;;;;;;;;;;25.85;58.50;100978.25;4164956;28;20472;-65
2023/07/10 06:39:08;;;;;;;13.20;7.07;;;;;;;25.94;58.16;100983.19;4163344;28;19960;-65
2023/07/10 06:41:12;;;;;;;9.35;5.90;;;;;;;26.05;58.08;100977.44;4163682;28;20042;-65
2023/07/10 06:43:18;;;;;;;11.18;5.90;;;;;;;26.18;57.58;100984.91;4163199;28;20077;-65
2023/07/10 06:45:21;;;;;;;12.13;5.55;;;;;;;26.19;57.54;100986.66;4159886;28;20052;-65
2023/07/10 06:47:24;;;;;;;9.88;5.75;;;;;;;26.20;56.64;100978.59;4164239;28;20511;-65
2023/07/10 06:49:27;;;;;;;8.88;4.80;;;;;;;26.22;56.03;100986.50;4164331;28;20041;-65
2023/07/10 06:51:31;;;;;;;10.40;7.15;;;;;;;26.24;56.21;100989.97;4162713;28;20045;-65
2023/07/10 06:53:34;;;;;;;;;;;;;;;26.28;56.42;100988.91;4162096;28;20061;-65
2023/07/10 06:55:37;;;;;;;9.27;6.50;;;;;;;26.47;55.96;100988.97;4139524;28;19949;-65
2023/07/10 06:57:40;;;;;;;11.32;6.60;;;;;;;26.45;55.77;100988.19;4160512;28;20440;-65
2023/07/10 06:59:43;;;;;;;12.48;6.10;;;;;;;26.50;55.61;100996.84;4163658;28;20038;-65
2023/07/10 07:01:46;;;;;;;12.68;7.45;;;;;;;26.49;55.38;100995.13;4162908;28;20038;-65
2023/07/10 07:03:49;;;;;;;13.07;6.97;;;;;;;26.41;55.66;100997.25;4161498;28;20033;-65
2023/07/10 07:05:52;;;;;;;10.98;5.95;;;;;;;26.37;55.64;101003.63;4175911;28;20128;-65
2023/07/10 07:07:56;;;;;;;11.07;5.70;;;;;;;26.29;56.43;101001.31;4154909;28;20101;-65
2023/07/10 07:09:59;;;;;;;;;;;;;;;26.27;56.51;100995.19;4162440;28;20296;-65
2023/07/10 07:12:02;;;;;;;8.00;5.25;;;;;;;26.34;56.62;100998.44;4162497;28;19925;-65
2023/07/10 07:14:05;;;;;;;9.30;5.55;;;;;;;26.44;56.54;101000.63;4161325;28;20289;-65
2023/07/10 07:16:08;;;;;;;11.60;6.55;;;;;;;26.64;55.72;100998.91;4163144;28;20041;-65
2023/07/10 07:18:11;;;;;;;9.63;6.60;;;;;;;26.58;56.31;100989.38;4161730;28;20171;-66
2023/07/10 07:20:14;;;;;;;10.55;5.97;;;;;;;26.61;56.49;100996.38;4162102;28;20049;-65
2023/07/10 07:22:17;;;;;;;13.77;6.70;;;;;;;26.75;56.65;100991.34;4148857;28;20073;-65
2023/07/10 07:24:21;;;;;;;15.48;10.18;;;;;;;26.81;55.47;101000.84;4162326;28;20084;-65
2023/07/10 07:26:25;;;;;;;;;;;;;;;26.82;56.25;100997.25;4161759;28;20048;-65
2023/07/10 07:28:27;;;;;;;9.73;6.88;;;;;;;26.70;55.60;100990.66;4163682;28;19921;-65
2023/07/10 07:30:33;;;;;;;9.00;5.70;;;;;;;26.71;55.65;100992.41;4162213;28;20462;-65
2023/07/10 07:32:36;;;;;;;10.80;7.40;;;;;;;26.83;54.61;100994.50;4163014;28;20038;-65
2023/07/10 07:34:39;;;;;;;7.63;5.45;;;;;;;26.79;54.78;101000.03;4161750;28;20045;-65
2023/07/10 07:36:41;;;;;;;11.60;7.50;;;;;;;26.79;55.00;101003.56;4163131;28;20462;-65
2023/07/10 07:38:44;;;;;;;12.10;7.18;;;;;;;26.82;54.98;101005.25;4163466;28;20038;-65
2023/07/10 07:40:49;;;;;;;10.50;5.38;;;;;;;26.88;54.67;101012.97;4161634;28;20064;-65
2023/07/10 07:42:52;;;;;;;11.60;7.32;;;;;;;27.07;54.31;101012.13;4162766;28;20037;-65
2023/07/10 07:44:57;;;;;;;11.10;7.80;;;;;;;27.01;54.46;101023.94;4162197;28;20033;-65
2023/07/10 07:47:00;;;;;;;12.70;8.55;;;;;;;27.00;54.92;101019.56;4161086;28;20499;-65
2023/07/10 07:49:03;;;;;;;13.68;8.70;;;;;;;27.08;54.15;101006.72;4160497;28;20048;-65
2023/07/10 07:51:08;;;;;;;10.70;7.05;;;;;;;27.03;54.64;101005.19;4177054;28;20039;-66
2023/07/10 07:53:11;;;;;;;11.85;6.43;;;;;;;27.08;54.65;101008.53;4162155;28;20045;-65
2023/07/10 07:55:14;;;;;;;13.02;8.82;;;;;;;27.16;54.50;101009.91;4160808;28;20133;-65
2023/07/10 07:57:22;;;;;;;14.07;8.88;;;;;;;27.08;54.52;101014.72;4162405;28;20057;-65
2023/07/10 07:59:25;;;;;;;13.43;8.60;;;;;;;27.15;54.88;101016.16;4175089;28;20029;-65
2023/07/10 08:01:28;;;;;;;14.20;8.93;;;;;;;27.28;54.35;101011.13;4162297;28;20046;-65
2023/07/10 08:03:41;;;;;;;11.20;8.70;;;;;;;27.33;54.18;100997.56;4158666;28;20052;-65
2023/07/10 08:05:44;;;;;;;15.63;9.90;;;;;;;27.36;54.75;101008.13;4157805;28;20121;-65
2023/07/10 08:07:47;;;;;;;13.85;11.57;;;;;;;27.58;53.16;101021.31;4176536;28;20545;-65
2023/07/10 08:09:50;;;;;;;12.32;10.23;;;;;;;27.45;53.53;101018.38;4177340;28;20048;-65
2023/07/10 08:11:53;;;;;;;14.63;11.95;;;;;;;27.50;53.52;101024.34;4162441;28;20045;-65
2023/07/10 08:13:57;;;;;;;12.43;11.13;;;;;;;27.49;53.96;101022.63;4161601;28;20116;-65
2023/07/10 08:16:00;;;;;;;16.60;14.30;;;;;;;27.75;53.04;101028.50;4160476;28;20040;-65
2023/07/10 08:18:04;;;;;;;12.10;10.07;;;;;;;27.61;53.76;101026.53;4160796;28;20042;-65
2023/07/10 08:20:08;;;;;;;13.00;10.23;;;;;;;27.61;54.34;101031.00;4176639;22;20048;-68
2023/07/10 08:22:10;;;;;;;14.77;10.23;;;;;;;27.71;54.07;101029.59;4161162;28;20037;-68
2023/07/10 08:24:14;;;;;;;14.05;11.30;;;;;;;27.86;53.42;101034.22;4160380;28;20029;-68
2023/07/10 08:26:17;;;;;;;18.30;14.38;;;;;;;28.02;53.04;101036.13;4161402;28;20053;-68
2023/07/10 08:28:20;;;;;;;17.35;12.13;;;;;;;27.95;53.23;101026.66;4160844;28;20049;-68
2023/07/10 08:30:26;;;;;;;17.48;14.05;;;;;;;28.02;52.37;101033.47;4144341;28;20061;-68
2023/07/10 08:32:29;;;;;;;22.08;13.77;;;;;;;28.03;52.57;101036.06;4144683;28;20034;-68
2023/07/10 08:34:32;;;;;;;14.60;12.90;;;;;;;27.95;52.93;101040.03;4145237;28;20423;-67
2023/07/10 08:36:35;;;;;;;65.53;18.10;;;;;;;28.00;52.71;101040.69;4142419;28;20041;-68
2023/07/10 08:38:39;;;;;;;23.58;11.73;;;;;;;28.02;52.67;101034.34;4160174;28;20150;-68
2023/07/10 08:40:42;;;;;;;20.23;12.18;;;;;;;28.14;52.15;101032.88;4145394;28;20403;-69
2023/07/10 08:42:45;;;;;;;14.80;9.63;;;;;;;28.19;52.15;101036.16;4145238;28;20480;-67
2023/07/10 08:44:52;;;;;;;15.60;10.77;;;;;;;28.15;52.19;101026.59;4144853;28;20484;-67
2023/07/10 08:46:57;;;;;;;11.27;9.52;;;;;;;28.21;52.16;101034.28;4145672;28;20038;-67
2023/07/10 08:49:06;;;;;;;12.20;9.52;;;;;;;28.31;52.14;101036.47;4138147;28;20046;-69
2023/07/10 08:51:26;;;;;;;14.52;9.60;;;;;;;28.41;51.79;101035.06;4145142;28;20125;-69
2023/07/10 08:53:34;;;;;;;12.65;9.18;;;;;;;28.42;51.90;101035.94;4144640;28;20050;-68
2023/07/10 08:55:49;;;;;;;12.18;9.15;;;;;;;28.34;51.82;101036.31;4143536;28;20050;-62
2023/07/10 08:57:57;;;;;;;11.82;8.05;;;;;;;28.39;51.79;101034.28;4143816;28;20104;-66
2023/07/10 09:00:04;;;;;;;12.00;8.30;;;;;;;28.54;51.56;101022.78;4143857;28;20049;-66
2023/07/10 09:02:29;;;;;;;13.98;9.88;;;;;;;28.65;50.52;101027.63;4145655;28;20057;-67
2023/07/10 09:04:32;;;;;;;10.40;8.77;;;;;;;28.58;50.88;101031.53;4145048;28;20049;-65
2023/07/10 09:06:40;;;;;;;10.27;7.80;;;;;;;28.63;51.16;101021.47;4145085;28;20084;-71
2023/07/10 09:08:47;;;;;;;28.95;10.80;;;;;;;28.64;51.18;101017.84;4145652;28;20044;-65
2023/07/10 09:10:54;;;;;;;21.67;9.63;;;;;;;28.76;50.57;101029.72;4143815;28;20044;-66
2023/07/10 09:13:02;;;;;;;12.00;10.55;;;;;;;28.89;49.79;101017.41;4141200;28;20062;-66
2023/07/10 09:15:08;;;;;;;13.13;9.32;;;;;;;28.79;50.50;101021.50;4143619;28;20137;-64
2023/07/10 09:17:20;;;;;;;10.73;8.73;;;;;;;28.89;51.01;101014.72;4144957;28;20041;-68
2023/07/10 09:19:25;;;;;;;12.75;8.40;;;;;;;29.01;50.41;101018.53;4144240;28;20573;-68
2023/07/10 09:21:31;;;;;;;10.20;8.00;;;;;;;29.17;49.28;101020.38;4143592;28;20153;-68
2023/07/10 09:23:35;;;;;;;9.82;7.53;;;;;;;29.11;49.04;101015.38;4143732;28;20454;-68
2023/07/10 09:25:38;;;;;;;14.60;11.05;;;;;;;29.11;49.47;101010.88;4144924;28;20042;-69
2023/07/10 09:27:42;;;;;;;14.57;8.53;;;;;;;29.13;49.72;101010.78;4144075;28;20040;-68
2023/07/10 09:29:50;;;;;;;10.98;7.50;;;;;;;29.18;50.06;101006.91;4143405;28;20757;-66
2023/07/10 09:31:57;;;;;;;11.23;8.50;;;;;;;29.43;49.87;101010.94;4141750;28;20125;-66
2023/07/10 09:34:01;;;;;;;12.88;8.43;;;;;;;29.45;49.05;101011.69;4144493;28;20038;-67
2023/07/10 09:36:13;;;;;;;10.32;8.40;;;;;;;29.47;48.05;101020.53;4139085;28;20044;-69
2023/07/10 09:38:19;;;;;;;10.73;8.55;;;;;;;29.36;48.46;101015.75;4142680;28;20060;-68